createdAt,value
2022-10-22T00:00:25.190Z,2.27
2022-10-22T00:02:57.049Z,2.17
2022-10-22T00:05:28.605Z,2.35
2022-10-22T00:08:00.466Z,2.58
2022-10-22T00:10:32.020Z,2.20
2022-10-22T00:13:03.834Z,2.53
2022-10-22T00:15:35.699Z,2.30
2022-10-22T00:18:07.194Z,2.60
2022-10-22T00:20:39.038Z,2.25
2022-10-22T00:23:10.528Z,2.10
2022-10-22T00:25:42.406Z,1.80
2022-10-22T00:28:14.926Z,2.45
2022-10-22T00:30:46.878Z,2.30
2022-10-22T00:33:18.598Z,2.80
2022-10-22T00:35:50.103Z,1.88
2022-10-22T00:38:21.628Z,1.85
2022-10-22T00:40:53.518Z,2.13
2022-10-22T00:43:25.122Z,2.72
2022-10-22T00:45:56.945Z,2.03
2022-10-22T00:48:28.497Z,2.05
2022-10-22T00:51:00.291Z,2.97
2022-10-22T00:53:31.782Z,2.22
2022-10-22T00:56:03.593Z,2.70
2022-10-22T00:58:35.078Z,2.28
2022-10-22T01:01:06.700Z,2.55
2022-10-22T01:03:38.271Z,2.22
2022-10-22T01:06:10.230Z,2.20
2022-10-22T01:08:41.754Z,2.35
2022-10-22T01:11:13.582Z,2.30
2022-10-22T01:13:45.063Z,2.60
2022-10-22T01:16:16.876Z,2.58
2022-10-22T01:18:48.942Z,2.72
2022-10-22T01:21:20.726Z,2.57
2022-10-22T01:23:52.226Z,1.98
2022-10-22T01:29:00.454Z,2.40
2022-10-22T01:31:32.323Z,2.17
2022-10-22T01:34:03.891Z,2.30
2022-10-22T01:36:35.748Z,2.17
2022-10-22T01:39:07.240Z,2.38
2022-10-22T01:41:39.043Z,1.92
2022-10-22T01:44:10.586Z,2.90
2022-10-22T01:46:42.069Z,2.63
2022-10-22T01:49:13.946Z,2.15
2022-10-22T01:51:45.465Z,2.00
2022-10-22T01:54:17.425Z,2.15
2022-10-22T01:56:48.931Z,2.33
2022-10-22T01:59:20.747Z,2.70
2022-10-22T02:01:52.242Z,2.45
2022-10-22T02:04:24.262Z,2.38
2022-10-22T02:06:55.769Z,2.63
2022-10-22T02:09:27.738Z,2.55
2022-10-22T02:11:59.488Z,2.28
2022-10-22T02:14:31.410Z,2.70
2022-10-22T02:17:02.933Z,2.05
2022-10-22T02:19:34.911Z,1.95
2022-10-22T02:22:06.712Z,2.60
2022-10-22T02:24:38.535Z,2.13
2022-10-22T02:27:10.195Z,2.35
2022-10-22T02:29:42.051Z,1.92
2022-10-22T02:32:13.567Z,2.33
2022-10-22T02:34:45.529Z,1.83
2022-10-22T02:37:17.027Z,2.10
2022-10-22T02:39:48.924Z,1.73
2022-10-22T02:42:20.473Z,2.35
2022-10-22T02:44:52.313Z,3.05
2022-10-22T02:47:23.843Z,2.10
2022-10-22T02:49:55.615Z,3.20
2022-10-22T02:52:27.150Z,2.45
2022-10-22T02:54:59.164Z,2.90
2022-10-22T02:57:30.673Z,2.25
2022-10-22T03:00:02.530Z,2.42
2022-10-22T03:02:34.054Z,2.15
2022-10-22T03:05:05.928Z,2.15
2022-10-22T03:07:37.639Z,2.42
2022-10-22T03:10:09.806Z,2.13
2022-10-22T03:12:41.296Z,2.30
2022-10-22T03:15:12.810Z,2.53
2022-10-22T03:17:44.322Z,2.28
2022-10-22T03:20:16.166Z,1.88
2022-10-22T03:22:47.648Z,2.28
2022-10-22T03:25:19.546Z,2.15
2022-10-22T03:27:51.054Z,1.80
2022-10-22T03:30:22.976Z,2.42
2022-10-22T03:32:54.477Z,2.30
2022-10-22T03:35:26.434Z,2.00
2022-10-22T03:37:57.946Z,2.22
2022-10-22T03:40:29.807Z,2.28
2022-10-22T03:43:02.715Z,1.85
2022-10-22T03:48:06.228Z,2.13
2022-10-22T03:50:37.713Z,2.30
2022-10-22T03:53:10.933Z,2.30
2022-10-22T03:55:42.525Z,1.95
2022-10-22T03:58:14.517Z,2.65
2022-10-22T04:00:46.077Z,2.00
2022-10-22T04:03:17.966Z,2.35
2022-10-22T04:05:49.448Z,2.72
2022-10-22T04:08:21.482Z,2.35
2022-10-22T04:10:52.989Z,2.47
2022-10-22T04:13:24.893Z,2.20
2022-10-22T04:15:56.374Z,2.22
2022-10-22T04:18:28.552Z,2.17
2022-10-22T04:21:00.050Z,2.78
2022-10-22T04:23:31.938Z,2.70
2022-10-22T04:26:03.442Z,2.58
2022-10-22T04:28:35.556Z,3.05
2022-10-22T04:31:07.039Z,2.50
2022-10-22T04:33:38.992Z,3.20
2022-10-22T04:36:11.567Z,2.88
2022-10-22T04:38:43.671Z,2.47
2022-10-22T04:41:15.216Z,2.07
2022-10-22T04:43:47.148Z,1.90
2022-10-22T04:46:18.888Z,3.08
2022-10-22T04:48:50.848Z,3.03
2022-10-22T04:51:22.430Z,2.88
2022-10-22T04:53:54.322Z,2.50
2022-10-22T04:56:25.972Z,2.45
2022-10-22T04:58:57.859Z,2.40
2022-10-22T05:01:29.401Z,2.53
2022-10-22T05:04:01.502Z,2.35
2022-10-22T05:06:32.988Z,2.40
2022-10-22T05:09:04.954Z,2.83
2022-10-22T05:11:36.488Z,2.50
2022-10-22T05:14:09.749Z,3.00
2022-10-22T05:16:41.322Z,2.28
2022-10-22T05:19:13.276Z,2.58
2022-10-22T05:21:44.820Z,2.72
2022-10-22T05:24:16.830Z,2.72
2022-10-22T05:26:48.309Z,2.92
2022-10-22T05:29:20.275Z,2.65
2022-10-22T05:31:51.845Z,2.60
2022-10-22T05:34:23.866Z,2.83
2022-10-22T05:36:55.339Z,2.47
2022-10-22T05:39:27.230Z,3.45
2022-10-22T05:41:58.766Z,2.63
2022-10-22T05:44:30.721Z,3.28
2022-10-22T05:47:02.273Z,3.80
2022-10-22T05:49:34.350Z,2.47
2022-10-22T05:52:05.836Z,3.03
2022-10-22T05:54:37.708Z,2.17
2022-10-22T05:57:09.195Z,2.58
2022-10-22T05:59:41.036Z,2.53
2022-10-22T06:02:12.811Z,2.63
2022-10-22T06:04:44.320Z,2.75
2022-10-22T06:07:16.175Z,2.42
2022-10-22T06:09:50.198Z,2.83
2022-10-22T06:12:22.045Z,2.60
2022-10-22T06:14:53.548Z,2.33
2022-10-22T06:17:25.480Z,2.33
2022-10-22T06:19:56.988Z,2.13
2022-10-22T06:22:29.035Z,2.22
2022-10-22T06:25:00.523Z,3.00
2022-10-22T06:27:32.330Z,2.20
2022-10-22T06:30:03.820Z,2.50
2022-10-22T06:32:35.590Z,2.47
2022-10-22T06:35:07.068Z,2.00
2022-10-22T06:37:39.504Z,2.30
2022-10-22T06:40:11.191Z,2.00
2022-10-22T06:42:43.398Z,2.70
2022-10-22T06:45:15.124Z,2.00
2022-10-22T06:47:48.003Z,2.25
2022-10-22T06:50:19.555Z,2.35
2022-10-22T06:52:51.342Z,2.47
2022-10-22T06:55:22.834Z,2.10
2022-10-22T06:57:54.704Z,2.33
2022-10-22T07:00:26.268Z,2.40
2022-10-22T07:02:59.850Z,2.00
2022-10-22T07:05:31.449Z,2.15
2022-10-22T07:08:03.402Z,2.13
2022-10-22T07:10:34.919Z,2.20
2022-10-22T07:13:06.791Z,2.67
2022-10-22T07:15:38.453Z,1.98
2022-10-22T07:18:10.309Z,1.77
2022-10-22T07:20:41.799Z,2.22
2022-10-22T07:23:13.638Z,2.50
2022-10-22T07:25:45.185Z,2.22
2022-10-22T07:28:17.286Z,2.33
2022-10-22T07:30:48.803Z,2.20
2022-10-22T07:33:20.660Z,2.15
2022-10-22T07:35:52.154Z,1.88
2022-10-22T07:38:24.056Z,2.53
2022-10-22T07:40:55.548Z,2.40
2022-10-22T07:43:27.382Z,2.72
2022-10-22T07:46:00.279Z,2.33
2022-10-22T07:48:31.828Z,2.30
2022-10-22T07:51:03.850Z,1.83
2022-10-22T07:53:35.399Z,2.20
2022-10-22T07:56:07.415Z,2.38
2022-10-22T07:58:38.975Z,2.27
2022-10-22T08:01:10.594Z,2.30
2022-10-22T08:03:42.179Z,2.17
2022-10-22T08:06:14.047Z,2.55
2022-10-22T08:08:48.578Z,2.20
2022-10-22T08:11:20.468Z,2.85
2022-10-22T08:13:51.955Z,2.40
2022-10-22T08:16:23.776Z,1.90
2022-10-22T08:18:55.266Z,2.45
2022-10-22T08:21:27.082Z,2.28
2022-10-22T08:23:58.633Z,2.47
2022-10-22T08:26:30.493Z,2.85
2022-10-22T08:29:02.001Z,2.15
2022-10-22T08:31:33.806Z,1.88
2022-10-22T08:34:05.674Z,2.13
2022-10-22T08:36:37.532Z,1.95
2022-10-22T08:39:09.012Z,1.75
2022-10-22T08:41:41.006Z,1.73
2022-10-22T08:44:12.506Z,2.55
2022-10-22T08:46:44.347Z,2.42
2022-10-22T08:49:15.840Z,2.20
2022-10-22T08:51:47.848Z,2.13
2022-10-22T08:54:19.567Z,1.88
2022-10-22T08:56:51.277Z,2.47
2022-10-22T08:59:22.771Z,2.10
2022-10-22T09:01:54.611Z,2.22
2022-10-22T09:04:26.163Z,1.98
2022-10-22T09:06:58.045Z,2.25
2022-10-22T09:09:29.579Z,2.10
2022-10-22T09:12:01.402Z,2.10
2022-10-22T09:14:32.917Z,2.40
2022-10-22T09:17:05.306Z,2.38
2022-10-22T09:19:36.833Z,2.20
2022-10-22T09:22:08.798Z,2.42
2022-10-22T09:24:40.310Z,2.50
2022-10-22T09:27:12.101Z,2.40
2022-10-22T09:29:43.613Z,2.20
2022-10-22T09:32:15.433Z,2.40
2022-10-22T09:34:46.951Z,1.98
2022-10-22T09:37:18.814Z,2.47
2022-10-22T09:39:50.294Z,1.90
2022-10-22T09:42:22.124Z,2.00
2022-10-22T09:44:53.864Z,2.53
2022-10-22T09:47:37.276Z,2.47
2022-10-22T09:50:14.600Z,2.28
2022-10-22T09:52:46.571Z,2.08
2022-10-22T09:55:18.048Z,2.35
2022-10-22T09:57:49.860Z,2.05
2022-10-22T10:00:22.006Z,2.45
2022-10-22T10:02:53.941Z,2.25
2022-10-22T10:05:25.435Z,2.65
2022-10-22T10:07:57.398Z,2.13
2022-10-22T10:10:28.986Z,1.90
2022-10-22T10:13:00.793Z,2.60
2022-10-22T10:15:34.292Z,2.28
2022-10-22T10:18:05.802Z,2.30
2022-10-22T10:20:39.458Z,2.30
2022-10-22T10:23:10.946Z,2.05
2022-10-22T10:25:42.643Z,2.08
2022-10-22T10:28:14.151Z,1.75
2022-10-22T10:30:46.151Z,1.77
2022-10-22T10:33:17.706Z,2.13
2022-10-22T10:35:49.532Z,1.75
2022-10-22T10:38:23.518Z,2.53
2022-10-22T10:40:57.896Z,2.28
2022-10-22T10:43:29.380Z,2.45
2022-10-22T10:46:01.177Z,2.25
2022-10-22T10:48:32.667Z,2.50
2022-10-22T10:51:04.556Z,2.13
2022-10-22T10:53:36.043Z,2.05
2022-10-22T10:56:07.870Z,1.73
2022-10-22T10:58:39.368Z,2.38
2022-10-22T11:01:11.372Z,2.05
2022-10-22T11:03:42.939Z,1.93
2022-10-22T11:06:15.235Z,2.45
2022-10-22T11:08:48.684Z,2.05
2022-10-22T11:11:20.578Z,2.00
2022-10-22T11:13:52.070Z,2.63
2022-10-22T11:16:23.861Z,2.17
2022-10-22T11:18:55.376Z,2.15
2022-10-22T11:21:27.309Z,1.98
2022-10-22T11:23:58.832Z,1.90
2022-10-22T11:26:30.619Z,2.20
2022-10-22T11:29:02.138Z,2.20
2022-10-22T11:31:33.989Z,2.33
2022-10-22T11:34:21.723Z,2.30
2022-10-22T11:36:57.751Z,2.67
2022-10-22T11:39:29.236Z,2.03
2022-10-22T11:42:00.908Z,2.10
2022-10-22T11:44:33.563Z,1.73
2022-10-22T11:47:05.407Z,1.50
2022-10-22T11:49:36.913Z,1.63
2022-10-22T11:52:08.439Z,2.25
2022-10-22T11:54:42.838Z,2.03
2022-10-22T11:57:14.767Z,1.85
2022-10-22T11:59:46.249Z,2.67
2022-10-22T12:02:17.753Z,1.33
2022-10-22T12:04:49.429Z,1.70
2022-10-22T12:07:21.292Z,1.52
2022-10-22T12:12:29.539Z,1.17
2022-10-22T12:15:01.056Z,1.83
2022-10-22T12:17:32.857Z,1.60
2022-10-22T12:20:04.345Z,1.30
2022-10-22T12:22:39.348Z,1.35
2022-10-22T12:25:11.379Z,1.40
2022-10-22T12:27:43.157Z,1.30
2022-10-22T12:30:15.726Z,1.90
2022-10-22T12:32:47.204Z,1.30
2022-10-22T12:35:19.100Z,0.90
2022-10-22T12:37:50.896Z,0.90
2022-10-22T12:40:22.767Z,1.15
2022-10-22T12:42:54.271Z,1.15
2022-10-22T12:45:26.166Z,0.95
2022-10-22T12:47:57.716Z,0.73
2022-10-22T12:50:29.555Z,1.23
2022-10-22T12:53:01.036Z,1.20
2022-10-22T12:55:32.883Z,1.10
2022-10-22T12:58:04.383Z,1.05
2022-10-22T13:00:35.934Z,0.90
2022-10-22T13:03:07.532Z,0.82
2022-10-22T13:05:39.558Z,0.95
2022-10-22T13:08:11.093Z,0.77
2022-10-22T13:10:42.961Z,0.82
2022-10-22T13:13:14.472Z,0.70
2022-10-22T13:15:46.438Z,0.77
2022-10-22T13:18:17.964Z,0.90
2022-10-22T13:20:49.475Z,0.80
2022-10-22T13:23:21.078Z,0.65
2022-10-22T13:25:52.955Z,0.80
2022-10-22T13:28:25.018Z,0.70
2022-10-22T13:30:56.864Z,0.70
2022-10-22T13:33:28.388Z,0.63
2022-10-22T13:36:00.223Z,0.63
2022-10-22T13:38:31.725Z,1.00
2022-10-22T13:41:05.162Z,0.90
2022-10-22T13:43:36.659Z,0.85
2022-10-22T13:46:08.528Z,1.17
2022-10-22T13:48:40.019Z,0.85
2022-10-22T13:51:11.814Z,0.77
2022-10-22T13:53:43.331Z,0.50
2022-10-22T13:56:15.806Z,0.90
2022-10-22T13:58:47.312Z,0.73
2022-10-22T14:01:19.585Z,0.70
2022-10-22T14:03:51.425Z,0.60
2022-10-22T14:06:23.438Z,0.77
2022-10-22T14:08:56.123Z,1.00
2022-10-22T14:11:27.713Z,0.98
2022-10-22T14:13:59.235Z,0.70
2022-10-22T14:16:32.656Z,0.90
2022-10-22T14:19:04.138Z,0.80
2022-10-22T14:21:36.000Z,0.88
2022-10-22T14:24:09.528Z,1.05
2022-10-22T14:26:43.716Z,0.70
2022-10-22T14:29:15.202Z,0.60
2022-10-22T14:31:47.107Z,0.82
2022-10-22T14:34:18.652Z,0.75
2022-10-22T14:36:50.148Z,0.73
2022-10-22T14:39:21.638Z,0.95
2022-10-22T14:41:53.137Z,0.57
2022-10-22T14:44:24.743Z,0.93
2022-10-22T14:46:56.582Z,0.73
2022-10-22T14:49:28.078Z,0.90
2022-10-22T14:51:59.903Z,0.65
2022-10-22T14:54:31.464Z,0.80
2022-10-22T14:57:03.301Z,0.70
2022-10-22T14:59:34.789Z,0.77
2022-10-22T15:02:06.590Z,0.85
2022-10-22T15:04:38.078Z,0.80
2022-10-22T15:07:09.970Z,0.68
2022-10-22T15:09:41.452Z,1.00
2022-10-22T15:12:13.282Z,0.93
2022-10-22T15:14:44.886Z,0.77
2022-10-22T15:17:16.829Z,0.60
2022-10-22T15:19:48.332Z,0.65
2022-10-22T15:22:20.211Z,0.63
2022-10-22T15:24:53.538Z,0.63
2022-10-22T15:27:25.658Z,0.80
2022-10-22T15:29:59.486Z,0.55
2022-10-22T15:32:33.274Z,0.55
2022-10-22T15:35:06.199Z,0.80
2022-10-22T15:40:10.177Z,0.70
2022-10-22T15:42:42.049Z,0.68
2022-10-22T15:45:14.285Z,1.08
2022-10-22T15:47:47.462Z,1.35
2022-10-22T15:50:20.043Z,0.80
2022-10-22T15:52:51.599Z,0.80
2022-10-22T15:55:23.338Z,1.15
2022-10-22T15:57:57.201Z,0.70
2022-10-22T16:00:31.214Z,1.10
2022-10-22T16:03:02.712Z,0.50
2022-10-22T16:05:34.655Z,0.80
2022-10-22T16:08:06.133Z,1.98
2022-10-22T16:10:37.717Z,0.88
2022-10-22T16:13:09.214Z,0.73
2022-10-22T16:15:41.118Z,0.73
2022-10-22T16:18:12.636Z,1.08
2022-10-22T16:20:44.180Z,0.80
2022-10-22T16:23:18.716Z,0.70
2022-10-22T16:25:50.595Z,1.08
2022-10-22T16:28:22.225Z,0.68
2022-10-22T16:30:54.234Z,0.73
2022-10-22T16:33:25.728Z,0.75
2022-10-22T16:35:57.701Z,1.10
2022-10-22T16:38:29.271Z,0.80
2022-10-22T16:41:01.191Z,0.63
2022-10-22T16:43:32.755Z,0.82
2022-10-22T16:46:04.641Z,0.80
2022-10-22T16:48:40.355Z,0.68
2022-10-22T16:51:12.269Z,0.80
2022-10-22T16:53:43.838Z,0.98
2022-10-22T16:56:15.346Z,1.02
2022-10-22T16:58:46.898Z,0.73
2022-10-22T17:01:18.805Z,1.02
2022-10-22T17:03:50.363Z,1.17
2022-10-22T17:06:22.497Z,0.93
2022-10-22T17:08:54.066Z,1.03
2022-10-22T17:11:26.093Z,1.23
2022-10-22T17:13:58.098Z,1.00
2022-10-22T17:16:29.675Z,1.73
2022-10-22T17:19:01.597Z,0.93
2022-10-22T17:21:34.021Z,1.27
2022-10-22T17:24:06.003Z,1.10
2022-10-22T17:26:37.591Z,1.35
2022-10-22T17:29:09.391Z,1.27
2022-10-22T17:31:40.936Z,1.30
2022-10-22T17:34:12.899Z,0.95
2022-10-22T17:36:44.404Z,0.98
2022-10-22T17:39:16.214Z,1.58
2022-10-22T17:41:47.767Z,1.30
2022-10-22T17:44:19.621Z,1.00
2022-10-22T17:46:51.108Z,1.05
2022-10-22T17:49:22.930Z,1.30
2022-10-22T17:51:54.489Z,1.70
2022-10-22T17:54:26.473Z,1.40
2022-10-22T17:56:57.969Z,1.00
2022-10-22T17:59:29.788Z,1.50
2022-10-22T18:02:04.359Z,1.17
2022-10-22T18:04:36.208Z,1.17
2022-10-22T18:07:07.697Z,1.38
2022-10-22T18:09:39.267Z,1.33
2022-10-22T18:12:13.685Z,1.33
2022-10-22T18:14:47.021Z,1.55
2022-10-22T18:17:18.596Z,1.10
2022-10-22T18:19:50.487Z,0.95
2022-10-22T18:22:21.990Z,1.15
2022-10-22T18:24:53.558Z,1.10
2022-10-22T18:27:25.059Z,1.40
2022-10-22T18:29:56.849Z,1.30
2022-10-22T18:32:28.373Z,1.20
2022-10-22T18:35:00.184Z,1.00
2022-10-22T18:37:32.178Z,1.15
2022-10-22T18:40:03.673Z,1.13
2022-10-22T18:42:37.757Z,1.45
2022-10-22T18:45:11.997Z,0.90
2022-10-22T18:50:15.390Z,1.00
2022-10-22T18:52:47.267Z,1.20
2022-10-22T18:55:18.806Z,1.02
2022-10-22T18:57:50.688Z,1.30
2022-10-22T19:00:22.186Z,0.98
2022-10-22T19:02:54.894Z,1.08
2022-10-22T19:05:26.469Z,1.17
2022-10-22T19:07:58.299Z,1.15
2022-10-22T19:10:29.793Z,1.33
2022-10-22T19:13:01.361Z,1.48
2022-10-22T19:15:32.867Z,1.17
2022-10-22T19:18:04.712Z,1.15
2022-10-22T19:20:36.304Z,1.33
2022-10-22T19:23:07.901Z,1.25
2022-10-22T19:25:39.427Z,1.45
2022-10-22T19:28:11.262Z,1.75
2022-10-22T19:30:44.645Z,1.48
2022-10-22T19:33:16.182Z,1.35
2022-10-22T19:35:47.713Z,1.13
2022-10-22T19:38:19.516Z,1.10
2022-10-22T19:40:51.341Z,1.27
2022-10-22T19:43:23.998Z,2.25
2022-10-22T19:45:55.680Z,1.38
2022-10-22T19:48:29.148Z,1.48
2022-10-22T19:51:03.099Z,1.50
2022-10-22T19:53:34.611Z,2.22
2022-10-22T19:56:06.649Z,1.30
2022-10-22T19:58:38.148Z,1.13
2022-10-22T20:01:10.072Z,1.27
2022-10-22T20:03:41.735Z,1.40
2022-10-22T20:06:13.534Z,1.23
2022-10-22T20:08:45.304Z,1.70
2022-10-22T20:11:17.181Z,1.40
2022-10-22T20:13:51.418Z,1.70
2022-10-22T20:16:24.577Z,1.60
2022-10-22T20:18:56.089Z,1.15
2022-10-22T20:21:27.898Z,1.35
2022-10-22T20:23:59.487Z,1.60
2022-10-22T20:26:31.902Z,1.70
2022-10-22T20:29:03.423Z,1.58
2022-10-22T20:31:36.606Z,1.35
2022-10-22T20:34:08.140Z,1.40
2022-10-22T20:36:39.674Z,1.30
2022-10-22T20:39:11.213Z,2.15
2022-10-22T20:41:42.987Z,1.38
2022-10-22T20:44:14.555Z,1.85
2022-10-22T20:46:46.440Z,1.50
2022-10-22T20:49:18.200Z,1.38
2022-10-22T20:51:49.995Z,1.60
2022-10-22T20:54:21.528Z,1.50
2022-10-22T20:56:53.445Z,1.25
2022-10-22T20:59:25.025Z,1.55
2022-10-22T21:01:56.622Z,1.23
2022-10-22T21:04:28.213Z,1.30
2022-10-22T21:07:00.141Z,1.20
2022-10-22T21:09:31.756Z,1.35
2022-10-22T21:12:03.792Z,1.38
2022-10-22T21:14:35.274Z,1.60
2022-10-22T21:17:08.286Z,1.02
2022-10-22T21:22:11.729Z,1.33
2022-10-22T21:24:43.227Z,1.33
2022-10-22T21:27:15.082Z,1.50
2022-10-22T21:29:46.657Z,1.38
2022-10-22T21:32:18.463Z,1.30
2022-10-22T21:34:49.962Z,1.27
2022-10-22T21:37:23.131Z,1.20
2022-10-22T21:39:54.619Z,1.20
2022-10-22T21:42:26.483Z,1.20
2022-10-22T21:44:58.013Z,1.52
2022-10-22T21:47:29.965Z,1.30
2022-10-22T21:50:01.545Z,1.25
2022-10-22T21:52:33.419Z,0.93
2022-10-22T21:55:05.208Z,1.17
2022-10-22T21:57:36.738Z,1.48
2022-10-22T22:00:08.304Z,1.13
2022-10-22T22:02:39.899Z,1.38
2022-10-22T22:05:11.874Z,1.33
2022-10-22T22:07:43.344Z,1.27
2022-10-22T22:10:15.125Z,1.10
2022-10-22T22:12:46.668Z,1.30
2022-10-22T22:15:18.498Z,1.70
2022-10-22T22:17:50.023Z,1.35
2022-10-22T22:20:21.587Z,1.40
2022-10-22T22:22:53.086Z,1.45
2022-10-22T22:25:24.915Z,1.42
2022-10-22T22:27:56.404Z,1.15
2022-10-22T22:30:28.155Z,1.20
2022-10-22T22:32:59.696Z,1.23
2022-10-22T22:35:32.736Z,1.08
2022-10-22T22:38:04.327Z,0.88
2022-10-22T22:40:36.757Z,1.42
2022-10-22T22:43:08.267Z,1.15
2022-10-22T22:45:41.243Z,1.35
2022-10-22T22:50:44.757Z,1.30
2022-10-22T22:53:16.239Z,0.93
2022-10-22T22:55:49.622Z,1.15
2022-10-22T22:58:21.126Z,1.25
2022-10-22T23:00:53.003Z,1.00
2022-10-22T23:03:24.579Z,0.98
2022-10-22T23:05:56.435Z,1.50
2022-10-22T23:08:27.934Z,0.90
2022-10-22T23:10:59.741Z,0.90
2022-10-22T23:13:31.250Z,1.10
2022-10-22T23:16:03.177Z,1.30
2022-10-22T23:18:35.552Z,1.58
2022-10-22T23:21:07.100Z,1.30
2022-10-22T23:23:38.984Z,1.27
2022-10-22T23:26:10.484Z,1.80
2022-10-22T23:28:42.011Z,1.38
2022-10-22T23:31:13.515Z,1.23
2022-10-22T23:33:45.069Z,1.33
2022-10-22T23:36:16.581Z,1.58
2022-10-22T23:38:49.217Z,1.17
2022-10-22T23:41:20.688Z,1.40
2022-10-22T23:43:52.501Z,1.35
2022-10-22T23:46:24.017Z,1.90
2022-10-22T23:48:55.875Z,1.30
2022-10-22T23:51:27.378Z,1.38
2022-10-22T23:53:59.203Z,1.75
2022-10-22T23:56:30.746Z,1.67
2022-10-22T23:59:02.275Z,1.30
